sensor_id;sensor_type;location;lat;lon;timestamp;temperature;humidity
46364;DHT22;32071;49.036;9.344;2023-04-24T00:02:14;11.60;99.90
46364;DHT22;32071;49.036;9.344;2023-04-24T00:04:40;11.60;99.90
46364;DHT22;32071;49.036;9.344;2023-04-24T00:07:06;11.60;99.90
46364;DHT22;32071;49.036;9.344;2023-04-24T00:09:33;11.60;99.90
46364;DHT22;32071;49.036;9.344;2023-04-24T00:11:58;11.60;99.90
46364;DHT22;32071;49.036;9.344;2023-04-24T00:14:25;11.60;99.90
46364;DHT22;32071;49.036;9.344;2023-04-24T00:16:50;11.60;99.90
46364;DHT22;32071;49.036;9.344;2023-04-24T00:19:16;11.70;99.90
46364;DHT22;32071;49.036;9.344;2023-04-24T00:21:41;11.70;99.90
46364;DHT22;32071;49.036;9.344;2023-04-24T00:24:07;11.70;99.90
46364;DHT22;32071;49.036;9.344;2023-04-24T00:26:34;11.70;99.90
46364;DHT22;32071;49.036;9.344;2023-04-24T00:29:00;11.70;99.90
46364;DHT22;32071;49.036;9.344;2023-04-24T00:31:25;11.70;99.90
46364;DHT22;32071;49.036;9.344;2023-04-24T00:33:51;11.70;99.90
46364;DHT22;32071;49.036;9.344;2023-04-24T00:36:16;11.70;99.90
46364;DHT22;32071;49.036;9.344;2023-04-24T00:38:44;11.70;99.90
46364;DHT22;32071;49.036;9.344;2023-04-24T00:41:10;11.70;99.90
46364;DHT22;32071;49.036;9.344;2023-04-24T00:43:35;11.70;99.90
46364;DHT22;32071;49.036;9.344;2023-04-24T00:46:01;11.70;99.90
46364;DHT22;32071;49.036;9.344;2023-04-24T00:48:27;11.70;99.90
46364;DHT22;32071;49.036;9.344;2023-04-24T00:50:53;11.70;99.90
46364;DHT22;32071;49.036;9.344;2023-04-24T00:53:19;11.70;99.90
46364;DHT22;32071;49.036;9.344;2023-04-24T00:55:44;11.70;99.90
46364;DHT22;32071;49.036;9.344;2023-04-24T00:58:10;11.70;99.90
46364;DHT22;32071;49.036;9.344;2023-04-24T01:00:36;11.80;99.90
46364;DHT22;32071;49.036;9.344;2023-04-24T01:03:04;11.70;99.90
46364;DHT22;32071;49.036;9.344;2023-04-24T01:05:31;11.70;99.90
46364;DHT22;32071;49.036;9.344;2023-04-24T01:07:58;11.70;99.90
46364;DHT22;32071;49.036;9.344;2023-04-24T01:10:24;11.70;99.90
46364;DHT22;32071;49.036;9.344;2023-04-24T01:12:51;11.60;99.90
46364;DHT22;32071;49.036;9.344;2023-04-24T01:15:17;11.60;99.90
46364;DHT22;32071;49.036;9.344;2023-04-24T01:17:42;11.50;99.90
46364;DHT22;32071;49.036;9.344;2023-04-24T01:20:08;11.50;99.90
46364;DHT22;32071;49.036;9.344;2023-04-24T01:22:34;11.50;99.90
46364;DHT22;32071;49.036;9.344;2023-04-24T01:25:01;11.50;99.90
46364;DHT22;32071;49.036;9.344;2023-04-24T01:27:26;11.50;99.90
46364;DHT22;32071;49.036;9.344;2023-04-24T01:29:52;11.50;99.90
46364;DHT22;32071;49.036;9.344;2023-04-24T01:32:18;11.50;99.90
46364;DHT22;32071;49.036;9.344;2023-04-24T01:34:45;11.40;99.90
46364;DHT22;32071;49.036;9.344;2023-04-24T01:37:11;11.40;99.90
46364;DHT22;32071;49.036;9.344;2023-04-24T01:39:37;11.40;99.90
46364;DHT22;32071;49.036;9.344;2023-04-24T01:42:02;11.40;99.90
46364;DHT22;32071;49.036;9.344;2023-04-24T01:44:30;11.30;99.90
46364;DHT22;32071;49.036;9.344;2023-04-24T01:46:56;11.20;99.90
46364;DHT22;32071;49.036;9.344;2023-04-24T01:49:22;11.20;99.90
46364;DHT22;32071;49.036;9.344;2023-04-24T01:51:47;11.20;99.90
46364;DHT22;32071;49.036;9.344;2023-04-24T01:54:13;11.10;99.90
46364;DHT22;32071;49.036;9.344;2023-04-24T01:56:42;11.00;99.90
46364;DHT22;32071;49.036;9.344;2023-04-24T01:59:10;11.00;99.90
46364;DHT22;32071;49.036;9.344;2023-04-24T02:01:37;11.00;99.90
46364;DHT22;32071;49.036;9.344;2023-04-24T02:04:04;11.00;99.90
46364;DHT22;32071;49.036;9.344;2023-04-24T02:06:30;11.00;99.90
46364;DHT22;32071;49.036;9.344;2023-04-24T02:08:58;11.00;99.90
46364;DHT22;32071;49.036;9.344;2023-04-24T02:11:24;10.90;99.90
46364;DHT22;32071;49.036;9.344;2023-04-24T02:13:49;11.00;99.90
46364;DHT22;32071;49.036;9.344;2023-04-24T02:16:15;10.90;99.90
46364;DHT22;32071;49.036;9.344;2023-04-24T02:18:41;10.80;99.90
46364;DHT22;32071;49.036;9.344;2023-04-24T02:21:06;10.70;99.90
46364;DHT22;32071;49.036;9.344;2023-04-24T02:23:32;10.70;99.90
46364;DHT22;32071;49.036;9.344;2023-04-24T02:25:57;10.60;99.90
46364;DHT22;32071;49.036;9.344;2023-04-24T02:28:23;10.70;99.90
46364;DHT22;32071;49.036;9.344;2023-04-24T02:30:50;10.70;99.90
46364;DHT22;32071;49.036;9.344;2023-04-24T02:33:16;10.70;99.90
46364;DHT22;32071;49.036;9.344;2023-04-24T02:35:41;10.70;99.90
46364;DHT22;32071;49.036;9.344;2023-04-24T02:38:07;10.70;99.90
46364;DHT22;32071;49.036;9.344;2023-04-24T02:40:32;10.70;99.90
46364;DHT22;32071;49.036;9.344;2023-04-24T02:42:58;10.70;99.90
46364;DHT22;32071;49.036;9.344;2023-04-24T02:45:23;10.70;99.90
46364;DHT22;32071;49.036;9.344;2023-04-24T02:47:49;10.70;99.90
46364;DHT22;32071;49.036;9.344;2023-04-24T02:50:15;10.80;99.90
46364;DHT22;32071;49.036;9.344;2023-04-24T02:52:40;10.90;99.90
46364;DHT22;32071;49.036;9.344;2023-04-24T02:55:06;10.90;99.90
46364;DHT22;32071;49.036;9.344;2023-04-24T02:57:33;10.90;99.90
46364;DHT22;32071;49.036;9.344;2023-04-24T02:59:59;10.90;99.90
46364;DHT22;32071;49.036;9.344;2023-04-24T03:02:25;11.00;99.90
46364;DHT22;32071;49.036;9.344;2023-04-24T03:04:50;11.00;99.90
46364;DHT22;32071;49.036;9.344;2023-04-24T03:07:16;11.20;99.90
46364;DHT22;32071;49.036;9.344;2023-04-24T03:09:42;11.20;99.90
46364;DHT22;32071;49.036;9.344;2023-04-24T03:12:07;11.30;99.90
46364;DHT22;32071;49.036;9.344;2023-04-24T03:14:33;11.30;99.90
46364;DHT22;32071;49.036;9.344;2023-04-24T03:16:58;11.40;99.90
46364;DHT22;32071;49.036;9.344;2023-04-24T03:19:24;11.30;99.90
46364;DHT22;32071;49.036;9.344;2023-04-24T03:21:50;11.30;99.90
46364;DHT22;32071;49.036;9.344;2023-04-24T03:24:15;11.30;99.90
46364;DHT22;32071;49.036;9.344;2023-04-24T03:26:41;11.30;99.90
46364;DHT22;32071;49.036;9.344;2023-04-24T03:29:07;11.30;99.90
46364;DHT22;32071;49.036;9.344;2023-04-24T03:31:32;11.20;99.90
46364;DHT22;32071;49.036;9.344;2023-04-24T03:33:58;11.20;99.90
46364;DHT22;32071;49.036;9.344;2023-04-24T03:36:23;11.10;99.90
46364;DHT22;32071;49.036;9.344;2023-04-24T03:38:49;11.10;99.90
46364;DHT22;32071;49.036;9.344;2023-04-24T03:41:14;11.10;99.90
46364;DHT22;32071;49.036;9.344;2023-04-24T03:43:40;11.10;99.90
46364;DHT22;32071;49.036;9.344;2023-04-24T03:46:06;11.10;99.90
46364;DHT22;32071;49.036;9.344;2023-04-24T03:48:32;11.20;99.90
46364;DHT22;32071;49.036;9.344;2023-04-24T03:50:57;11.20;99.90
46364;DHT22;32071;49.036;9.344;2023-04-24T03:53:23;11.20;99.90
46364;DHT22;32071;49.036;9.344;2023-04-24T03:55:48;11.20;99.90
46364;DHT22;32071;49.036;9.344;2023-04-24T03:58:14;11.20;99.90
46364;DHT22;32071;49.036;9.344;2023-04-24T04:00:40;11.30;99.90
46364;DHT22;32071;49.036;9.344;2023-04-24T04:03:06;11.30;99.90
46364;DHT22;32071;49.036;9.344;2023-04-24T04:05:31;11.30;99.90
46364;DHT22;32071;49.036;9.344;2023-04-24T04:07:57;11.30;99.90
46364;DHT22;32071;49.036;9.344;2023-04-24T04:10:23;11.30;99.90
46364;DHT22;32071;49.036;9.344;2023-04-24T04:12:48;11.30;99.90
46364;DHT22;32071;49.036;9.344;2023-04-24T04:15:14;11.30;99.90
46364;DHT22;32071;49.036;9.344;2023-04-24T04:17:39;11.30;99.90
46364;DHT22;32071;49.036;9.344;2023-04-24T04:20:06;11.30;99.90
46364;DHT22;32071;49.036;9.344;2023-04-24T04:22:35;11.30;99.90
46364;DHT22;32071;49.036;9.344;2023-04-24T04:25:01;11.20;99.90
46364;DHT22;32071;49.036;9.344;2023-04-24T04:27:26;11.00;99.90
46364;DHT22;32071;49.036;9.344;2023-04-24T04:29:52;10.80;99.90
46364;DHT22;32071;49.036;9.344;2023-04-24T04:32:17;10.70;99.90
46364;DHT22;32071;49.036;9.344;2023-04-24T04:34:43;10.60;99.90
46364;DHT22;32071;49.036;9.344;2023-04-24T04:37:10;10.40;99.90
46364;DHT22;32071;49.036;9.344;2023-04-24T04:39:38;10.30;99.90
46364;DHT22;32071;49.036;9.344;2023-04-24T04:42:03;10.20;99.90
46364;DHT22;32071;49.036;9.344;2023-04-24T04:44:29;10.20;99.90
46364;DHT22;32071;49.036;9.344;2023-04-24T04:46:56;10.10;99.90
46364;DHT22;32071;49.036;9.344;2023-04-24T04:49:22;10.00;99.90
46364;DHT22;32071;49.036;9.344;2023-04-24T04:51:49;10.00;99.90
46364;DHT22;32071;49.036;9.344;2023-04-24T04:54:16;9.90;99.90
46364;DHT22;32071;49.036;9.344;2023-04-24T04:56:41;9.90;99.90
46364;DHT22;32071;49.036;9.344;2023-04-24T04:59:07;9.90;99.90
46364;DHT22;32071;49.036;9.344;2023-04-24T05:01:32;9.90;99.90
46364;DHT22;32071;49.036;9.344;2023-04-24T05:03:58;9.90;99.90
46364;DHT22;32071;49.036;9.344;2023-04-24T05:06:24;9.90;99.90
46364;DHT22;32071;49.036;9.344;2023-04-24T05:08:50;9.90;99.90
46364;DHT22;32071;49.036;9.344;2023-04-24T05:11:16;9.90;99.90
46364;DHT22;32071;49.036;9.344;2023-04-24T05:13:42;9.90;99.90
46364;DHT22;32071;49.036;9.344;2023-04-24T05:16:07;9.90;99.90
46364;DHT22;32071;49.036;9.344;2023-04-24T05:18:33;9.90;99.90
46364;DHT22;32071;49.036;9.344;2023-04-24T05:20:58;9.90;99.90
46364;DHT22;32071;49.036;9.344;2023-04-24T05:23:24;9.90;99.90
46364;DHT22;32071;49.036;9.344;2023-04-24T05:25:49;9.90;99.90
46364;DHT22;32071;49.036;9.344;2023-04-24T05:28:15;9.90;99.90
46364;DHT22;32071;49.036;9.344;2023-04-24T05:30:41;9.90;99.90
46364;DHT22;32071;49.036;9.344;2023-04-24T05:33:07;9.90;99.90
46364;DHT22;32071;49.036;9.344;2023-04-24T05:35:33;10.00;99.90
46364;DHT22;32071;49.036;9.344;2023-04-24T05:37:59;10.00;99.90
46364;DHT22;32071;49.036;9.344;2023-04-24T05:40:24;10.10;99.90
46364;DHT22;32071;49.036;9.344;2023-04-24T05:42:50;10.10;99.90
46364;DHT22;32071;49.036;9.344;2023-04-24T05:45:17;10.10;99.90
46364;DHT22;32071;49.036;9.344;2023-04-24T05:47:43;10.00;99.90
46364;DHT22;32071;49.036;9.344;2023-04-24T05:50:10;10.10;99.90
46364;DHT22;32071;49.036;9.344;2023-04-24T05:52:35;10.10;99.90
46364;DHT22;32071;49.036;9.344;2023-04-24T05:55:01;10.10;99.90
46364;DHT22;32071;49.036;9.344;2023-04-24T05:57:27;10.10;99.90
46364;DHT22;32071;49.036;9.344;2023-04-24T05:59:52;10.10;99.90
46364;DHT22;32071;49.036;9.344;2023-04-24T06:02:18;10.00;99.90
46364;DHT22;32071;49.036;9.344;2023-04-24T06:04:44;10.00;99.90
46364;DHT22;32071;49.036;9.344;2023-04-24T06:07:12;10.00;99.90
46364;DHT22;32071;49.036;9.344;2023-04-24T06:09:38;9.90;99.90
46364;DHT22;32071;49.036;9.344;2023-04-24T06:12:04;9.80;99.90
46364;DHT22;32071;49.036;9.344;2023-04-24T06:14:29;9.70;99.90
46364;DHT22;32071;49.036;9.344;2023-04-24T06:16:55;9.70;99.90
46364;DHT22;32071;49.036;9.344;2023-04-24T06:19:21;9.80;99.90
46364;DHT22;32071;49.036;9.344;2023-04-24T06:21:46;9.90;99.90
46364;DHT22;32071;49.036;9.344;2023-04-24T06:24:14;10.00;99.90
46364;DHT22;32071;49.036;9.344;2023-04-24T06:26:40;10.20;99.90
46364;DHT22;32071;49.036;9.344;2023-04-24T06:29:06;10.30;99.90
46364;DHT22;32071;49.036;9.344;2023-04-24T06:31:32;10.40;99.90
46364;DHT22;32071;49.036;9.344;2023-04-24T06:34:02;10.50;99.90
46364;DHT22;32071;49.036;9.344;2023-04-24T06:36:28;10.50;99.90
46364;DHT22;32071;49.036;9.344;2023-04-24T06:38:54;10.60;99.90
46364;DHT22;32071;49.036;9.344;2023-04-24T06:41:19;10.70;99.90
46364;DHT22;32071;49.036;9.344;2023-04-24T06:43:45;10.80;99.90
46364;DHT22;32071;49.036;9.344;2023-04-24T06:46:11;10.80;99.90
46364;DHT22;32071;49.036;9.344;2023-04-24T06:48:37;10.80;99.90
46364;DHT22;32071;49.036;9.344;2023-04-24T06:51:02;10.90;99.90
46364;DHT22;32071;49.036;9.344;2023-04-24T06:53:28;11.00;99.90
46364;DHT22;32071;49.036;9.344;2023-04-24T06:55:54;11.00;99.90
46364;DHT22;32071;49.036;9.344;2023-04-24T06:58:20;11.00;99.90
46364;DHT22;32071;49.036;9.344;2023-04-24T07:00:45;11.00;99.90
46364;DHT22;32071;49.036;9.344;2023-04-24T07:03:11;11.10;99.90
46364;DHT22;32071;49.036;9.344;2023-04-24T07:05:36;11.20;99.90
46364;DHT22;32071;49.036;9.344;2023-04-24T07:08:03;11.10;99.90
46364;DHT22;32071;49.036;9.344;2023-04-24T07:10:29;11.10;99.90
46364;DHT22;32071;49.036;9.344;2023-04-24T07:12:55;11.20;99.90
46364;DHT22;32071;49.036;9.344;2023-04-24T07:15:22;11.20;99.90
46364;DHT22;32071;49.036;9.344;2023-04-24T07:17:48;11.20;99.90
46364;DHT22;32071;49.036;9.344;2023-04-24T07:20:14;11.20;99.90
46364;DHT22;32071;49.036;9.344;2023-04-24T07:22:40;11.30;99.90
46364;DHT22;32071;49.036;9.344;2023-04-24T07:25:06;11.30;99.90
46364;DHT22;32071;49.036;9.344;2023-04-24T07:27:33;11.40;99.90
46364;DHT22;32071;49.036;9.344;2023-04-24T07:29:59;11.50;99.90
46364;DHT22;32071;49.036;9.344;2023-04-24T07:32:25;11.70;99.90
46364;DHT22;32071;49.036;9.344;2023-04-24T07:34:50;11.70;99.90
46364;DHT22;32071;49.036;9.344;2023-04-24T07:37:16;11.60;99.90
46364;DHT22;32071;49.036;9.344;2023-04-24T07:39:41;11.60;99.90
46364;DHT22;32071;49.036;9.344;2023-04-24T07:42:07;11.70;99.90
46364;DHT22;32071;49.036;9.344;2023-04-24T07:44:33;11.70;99.90
46364;DHT22;32071;49.036;9.344;2023-04-24T07:46:58;11.70;99.90
46364;DHT22;32071;49.036;9.344;2023-04-24T07:49:24;11.80;99.90
46364;DHT22;32071;49.036;9.344;2023-04-24T07:51:50;11.70;99.90
46364;DHT22;32071;49.036;9.344;2023-04-24T07:54:15;11.80;99.90
46364;DHT22;32071;49.036;9.344;2023-04-24T07:56:41;11.80;99.90
46364;DHT22;32071;49.036;9.344;2023-04-24T07:59:08;11.70;99.90
46364;DHT22;32071;49.036;9.344;2023-04-24T08:01:35;11.70;99.90
46364;DHT22;32071;49.036;9.344;2023-04-24T08:04:01;11.90;99.90
46364;DHT22;32071;49.036;9.344;2023-04-24T08:06:26;11.90;99.90
46364;DHT22;32071;49.036;9.344;2023-04-24T08:08:59;12.00;99.90
46364;DHT22;32071;49.036;9.344;2023-04-24T08:11:25;11.90;99.90
46364;DHT22;32071;49.036;9.344;2023-04-24T08:13:50;11.80;99.90
46364;DHT22;32071;49.036;9.344;2023-04-24T08:16:16;11.90;99.90
46364;DHT22;32071;49.036;9.344;2023-04-24T08:18:41;11.80;99.90
46364;DHT22;32071;49.036;9.344;2023-04-24T08:21:07;11.80;99.90
46364;DHT22;32071;49.036;9.344;2023-04-24T08:23:33;12.00;99.90
46364;DHT22;32071;49.036;9.344;2023-04-24T08:25:58;12.30;99.90
46364;DHT22;32071;49.036;9.344;2023-04-24T08:28:26;12.30;99.90
46364;DHT22;32071;49.036;9.344;2023-04-24T08:30:51;12.10;99.90
46364;DHT22;32071;49.036;9.344;2023-04-24T08:33:22;12.10;99.90
46364;DHT22;32071;49.036;9.344;2023-04-24T08:35:48;12.10;99.90
46364;DHT22;32071;49.036;9.344;2023-04-24T08:38:14;12.20;99.90
46364;DHT22;32071;49.036;9.344;2023-04-24T08:40:40;12.20;99.90
46364;DHT22;32071;49.036;9.344;2023-04-24T08:43:06;12.40;99.90
46364;DHT22;32071;49.036;9.344;2023-04-24T08:45:32;12.50;99.90
46364;DHT22;32071;49.036;9.344;2023-04-24T08:47:58;12.70;99.90
46364;DHT22;32071;49.036;9.344;2023-04-24T08:50:25;12.90;99.90
46364;DHT22;32071;49.036;9.344;2023-04-24T08:52:51;13.10;99.90
46364;DHT22;32071;49.036;9.344;2023-04-24T08:55:19;13.20;99.90
46364;DHT22;32071;49.036;9.344;2023-04-24T08:57:50;13.00;99.90
46364;DHT22;32071;49.036;9.344;2023-04-24T09:00:17;12.80;99.90
46364;DHT22;32071;49.036;9.344;2023-04-24T09:02:43;12.50;99.90
46364;DHT22;32071;49.036;9.344;2023-04-24T09:05:10;12.40;99.90
46364;DHT22;32071;49.036;9.344;2023-04-24T09:07:38;12.20;99.90
46364;DHT22;32071;49.036;9.344;2023-04-24T09:10:05;12.10;99.90
46364;DHT22;32071;49.036;9.344;2023-04-24T09:12:32;12.10;99.90
46364;DHT22;32071;49.036;9.344;2023-04-24T09:14:58;12.10;99.90
46364;DHT22;32071;49.036;9.344;2023-04-24T09:17:25;12.20;99.90
46364;DHT22;32071;49.036;9.344;2023-04-24T09:19:52;12.40;99.90
46364;DHT22;32071;49.036;9.344;2023-04-24T09:22:18;12.50;99.90
46364;DHT22;32071;49.036;9.344;2023-04-24T09:24:45;12.50;99.90
46364;DHT22;32071;49.036;9.344;2023-04-24T09:27:11;12.40;99.90
46364;DHT22;32071;49.036;9.344;2023-04-24T09:29:38;12.70;99.90
46364;DHT22;32071;49.036;9.344;2023-04-24T09:32:22;13.10;99.90
46364;DHT22;32071;49.036;9.344;2023-04-24T09:35:12;13.20;99.90
46364;DHT22;32071;49.036;9.344;2023-04-24T09:37:43;13.30;99.90
46364;DHT22;32071;49.036;9.344;2023-04-24T09:40:16;13.30;99.90
46364;DHT22;32071;49.036;9.344;2023-04-24T09:42:59;13.20;99.90
46364;DHT22;32071;49.036;9.344;2023-04-24T09:45:28;12.90;99.90
46364;DHT22;32071;49.036;9.344;2023-04-24T09:48:00;12.70;99.90
46364;DHT22;32071;49.036;9.344;2023-04-24T09:50:25;12.80;99.90
46364;DHT22;32071;49.036;9.344;2023-04-24T09:52:59;12.70;99.90
46364;DHT22;32071;49.036;9.344;2023-04-24T09:55:27;12.70;99.90
46364;DHT22;32071;49.036;9.344;2023-04-24T09:57:56;12.70;99.90
46364;DHT22;32071;49.036;9.344;2023-04-24T10:00:27;12.90;99.90
46364;DHT22;32071;49.036;9.344;2023-04-24T10:02:57;13.00;99.90
46364;DHT22;32071;49.036;9.344;2023-04-24T10:05:24;13.00;99.90
46364;DHT22;32071;49.036;9.344;2023-04-24T10:07:51;13.00;99.90
46364;DHT22;32071;49.036;9.344;2023-04-24T10:10:16;13.00;99.90
46364;DHT22;32071;49.036;9.344;2023-04-24T10:12:43;12.80;99.90
46364;DHT22;32071;49.036;9.344;2023-04-24T10:15:10;12.90;99.90
46364;DHT22;32071;49.036;9.344;2023-04-24T10:17:37;13.30;99.90
46364;DHT22;32071;49.036;9.344;2023-04-24T10:20:05;13.70;99.90
46364;DHT22;32071;49.036;9.344;2023-04-24T10:22:32;13.80;99.90
46364;DHT22;32071;49.036;9.344;2023-04-24T10:24:58;13.80;99.90
46364;DHT22;32071;49.036;9.344;2023-04-24T10:27:26;13.90;99.90
46364;DHT22;32071;49.036;9.344;2023-04-24T10:29:53;13.80;99.90
46364;DHT22;32071;49.036;9.344;2023-04-24T10:32:19;13.50;99.90
46364;DHT22;32071;49.036;9.344;2023-04-24T10:34:44;13.00;99.90
46364;DHT22;32071;49.036;9.344;2023-04-24T10:37:10;12.60;99.90
46364;DHT22;32071;49.036;9.344;2023-04-24T10:39:36;12.40;99.90
46364;DHT22;32071;49.036;9.344;2023-04-24T10:42:14;12.20;99.90
46364;DHT22;32071;49.036;9.344;2023-04-24T10:44:41;12.00;99.90
46364;DHT22;32071;49.036;9.344;2023-04-24T10:47:12;12.00;99.90
46364;DHT22;32071;49.036;9.344;2023-04-24T10:49:38;12.10;99.90
46364;DHT22;32071;49.036;9.344;2023-04-24T10:52:05;12.10;99.90
46364;DHT22;32071;49.036;9.344;2023-04-24T11:00:16;12.60;99.90
46364;DHT22;32071;49.036;9.344;2023-04-24T11:02:46;12.70;99.90
46364;DHT22;32071;49.036;9.344;2023-04-24T11:05:18;12.80;99.90
46364;DHT22;32071;49.036;9.344;2023-04-24T11:08:13;12.80;99.90
46364;DHT22;32071;49.036;9.344;2023-04-24T11:10:40;12.60;99.90
46364;DHT22;32071;49.036;9.344;2023-04-24T11:13:06;12.60;99.90
46364;DHT22;32071;49.036;9.344;2023-04-24T11:15:32;12.80;99.90
46364;DHT22;32071;49.036;9.344;2023-04-24T11:17:58;12.90;99.90
46364;DHT22;32071;49.036;9.344;2023-04-24T11:20:23;13.00;99.90
46364;DHT22;32071;49.036;9.344;2023-04-24T11:22:53;13.00;99.90
46364;DHT22;32071;49.036;9.344;2023-04-24T11:25:23;12.90;99.90
46364;DHT22;32071;49.036;9.344;2023-04-24T11:27:49;12.80;99.90
46364;DHT22;32071;49.036;9.344;2023-04-24T11:30:20;12.80;99.90
46364;DHT22;32071;49.036;9.344;2023-04-24T11:32:50;12.60;99.90
46364;DHT22;32071;49.036;9.344;2023-04-24T11:35:22;12.30;99.90
46364;DHT22;32071;49.036;9.344;2023-04-24T11:37:54;12.10;99.90
46364;DHT22;32071;49.036;9.344;2023-04-24T11:40:21;12.00;99.90
46364;DHT22;32071;49.036;9.344;2023-04-24T11:42:52;12.00;99.90
46364;DHT22;32071;49.036;9.344;2023-04-24T11:45:23;12.00;99.90
46364;DHT22;32071;49.036;9.344;2023-04-24T11:47:50;12.00;99.90
46364;DHT22;32071;49.036;9.344;2023-04-24T11:50:18;12.10;99.90
46364;DHT22;32071;49.036;9.344;2023-04-24T11:52:45;12.00;99.90
46364;DHT22;32071;49.036;9.344;2023-04-24T11:55:31;11.90;99.90
46364;DHT22;32071;49.036;9.344;2023-04-24T11:57:59;11.90;99.90
46364;DHT22;32071;49.036;9.344;2023-04-24T12:00:30;12.00;99.90
46364;DHT22;32071;49.036;9.344;2023-04-24T12:03:10;12.20;99.90
46364;DHT22;32071;49.036;9.344;2023-04-24T12:05:37;12.50;99.90
46364;DHT22;32071;49.036;9.344;2023-04-24T12:08:03;12.60;99.90
46364;DHT22;32071;49.036;9.344;2023-04-24T12:10:30;12.80;99.90
46364;DHT22;32071;49.036;9.344;2023-04-24T12:12:57;12.80;99.90
46364;DHT22;32071;49.036;9.344;2023-04-24T12:15:23;12.60;99.90
46364;DHT22;32071;49.036;9.344;2023-04-24T12:17:51;12.40;99.90
46364;DHT22;32071;49.036;9.344;2023-04-24T12:20:17;12.20;99.90
46364;DHT22;32071;49.036;9.344;2023-04-24T12:22:53;12.00;99.90
46364;DHT22;32071;49.036;9.344;2023-04-24T12:25:27;11.60;99.90
46364;DHT22;32071;49.036;9.344;2023-04-24T12:27:54;11.30;99.90
46364;DHT22;32071;49.036;9.344;2023-04-24T12:30:21;11.30;99.90
46364;DHT22;32071;49.036;9.344;2023-04-24T12:32:49;11.60;99.90
46364;DHT22;32071;49.036;9.344;2023-04-24T12:35:23;12.00;99.90
46364;DHT22;32071;49.036;9.344;2023-04-24T12:37:48;12.30;99.90
46364;DHT22;32071;49.036;9.344;2023-04-24T12:40:15;12.60;99.90
46364;DHT22;32071;49.036;9.344;2023-04-24T12:42:48;12.50;99.90
46364;DHT22;32071;49.036;9.344;2023-04-24T12:45:16;12.60;99.90
46364;DHT22;32071;49.036;9.344;2023-04-24T12:47:43;12.40;99.90
46364;DHT22;32071;49.036;9.344;2023-04-24T12:50:13;12.10;99.90
46364;DHT22;32071;49.036;9.344;2023-04-24T12:52:40;11.30;99.90
46364;DHT22;32071;49.036;9.344;2023-04-24T12:55:06;10.50;99.90
46364;DHT22;32071;49.036;9.344;2023-04-24T12:57:37;10.30;99.90
46364;DHT22;32071;49.036;9.344;2023-04-24T13:00:04;10.30;99.90
46364;DHT22;32071;49.036;9.344;2023-04-24T13:02:30;10.20;99.90
46364;DHT22;32071;49.036;9.344;2023-04-24T13:05:00;10.00;99.90
46364;DHT22;32071;49.036;9.344;2023-04-24T13:07:26;9.80;99.90
46364;DHT22;32071;49.036;9.344;2023-04-24T13:09:53;9.80;99.90
46364;DHT22;32071;49.036;9.344;2023-04-24T13:12:19;9.90;99.90
46364;DHT22;32071;49.036;9.344;2023-04-24T13:14:45;10.30;99.90
46364;DHT22;32071;49.036;9.344;2023-04-24T13:17:11;10.70;99.90
46364;DHT22;32071;49.036;9.344;2023-04-24T13:19:40;10.90;99.90
46364;DHT22;32071;49.036;9.344;2023-04-24T13:22:06;11.10;99.90
46364;DHT22;32071;49.036;9.344;2023-04-24T13:24:33;11.30;99.90
46364;DHT22;32071;49.036;9.344;2023-04-24T13:26:58;11.40;99.90
46364;DHT22;32071;49.036;9.344;2023-04-24T13:29:24;11.60;99.90
46364;DHT22;32071;49.036;9.344;2023-04-24T13:31:53;11.80;99.90
46364;DHT22;32071;49.036;9.344;2023-04-24T13:34:25;12.10;99.90
46364;DHT22;32071;49.036;9.344;2023-04-24T13:36:53;12.10;99.90
46364;DHT22;32071;49.036;9.344;2023-04-24T13:39:19;12.20;99.90
46364;DHT22;32071;49.036;9.344;2023-04-24T13:41:45;12.30;99.90
46364;DHT22;32071;49.036;9.344;2023-04-24T13:44:13;12.50;99.90
46364;DHT22;32071;49.036;9.344;2023-04-24T13:46:38;12.60;99.90
46364;DHT22;32071;49.036;9.344;2023-04-24T13:49:04;12.40;99.90
46364;DHT22;32071;49.036;9.344;2023-04-24T13:51:30;12.40;99.90
46364;DHT22;32071;49.036;9.344;2023-04-24T13:53:55;12.50;99.90
46364;DHT22;32071;49.036;9.344;2023-04-24T13:56:21;12.80;99.90
46364;DHT22;32071;49.036;9.344;2023-04-24T13:58:48;13.10;99.90
46364;DHT22;32071;49.036;9.344;2023-04-24T14:01:14;13.50;99.90
46364;DHT22;32071;49.036;9.344;2023-04-24T14:03:40;13.90;99.90
46364;DHT22;32071;49.036;9.344;2023-04-24T14:06:06;14.20;99.90
46364;DHT22;32071;49.036;9.344;2023-04-24T14:08:32;14.20;99.90
46364;DHT22;32071;49.036;9.344;2023-04-24T14:10:57;14.00;99.90
46364;DHT22;32071;49.036;9.344;2023-04-24T14:13:23;14.10;99.90
46364;DHT22;32071;49.036;9.344;2023-04-24T14:15:49;14.20;99.90
46364;DHT22;32071;49.036;9.344;2023-04-24T14:18:14;14.30;99.90
46364;DHT22;32071;49.036;9.344;2023-04-24T14:20:40;14.40;99.90
46364;DHT22;32071;49.036;9.344;2023-04-24T14:23:05;14.60;99.90
46364;DHT22;32071;49.036;9.344;2023-04-24T14:25:31;14.30;99.90
46364;DHT22;32071;49.036;9.344;2023-04-24T14:27:57;14.10;99.90
46364;DHT22;32071;49.036;9.344;2023-04-24T14:30:22;13.70;99.90
46364;DHT22;32071;49.036;9.344;2023-04-24T14:32:48;13.50;99.90
46364;DHT22;32071;49.036;9.344;2023-04-24T14:35:14;13.60;99.90
46364;DHT22;32071;49.036;9.344;2023-04-24T14:37:40;13.50;99.90
46364;DHT22;32071;49.036;9.344;2023-04-24T14:40:07;13.40;99.90
46364;DHT22;32071;49.036;9.344;2023-04-24T14:42:33;13.30;99.90
46364;DHT22;32071;49.036;9.344;2023-04-24T14:44:59;13.20;99.90
46364;DHT22;32071;49.036;9.344;2023-04-24T14:47:25;13.20;99.90
46364;DHT22;32071;49.036;9.344;2023-04-24T14:49:50;14.70;99.90
46364;DHT22;32071;49.036;9.344;2023-04-24T14:52:16;16.80;99.90
46364;DHT22;32071;49.036;9.344;2023-04-24T14:54:42;18.90;97.40
46364;DHT22;32071;49.036;9.344;2023-04-24T14:57:08;20.80;93.70
46364;DHT22;32071;49.036;9.344;2023-04-24T14:59:34;21.80;92.20
46364;DHT22;32071;49.036;9.344;2023-04-24T15:02:00;21.80;90.00
46364;DHT22;32071;49.036;9.344;2023-04-24T15:04:25;20.00;89.50
46364;DHT22;32071;49.036;9.344;2023-04-24T15:06:51;17.90;92.20
46364;DHT22;32071;49.036;9.344;2023-04-24T15:09:19;16.10;94.20
46364;DHT22;32071;49.036;9.344;2023-04-24T15:11:44;14.90;96.00
46364;DHT22;32071;49.036;9.344;2023-04-24T15:14:10;14.30;96.90
46364;DHT22;32071;49.036;9.344;2023-04-24T15:16:36;14.00;98.40
46364;DHT22;32071;49.036;9.344;2023-04-24T15:19:01;13.70;99.30
46364;DHT22;32071;49.036;9.344;2023-04-24T15:21:27;13.90;99.90
46364;DHT22;32071;49.036;9.344;2023-04-24T15:23:52;15.10;98.90
46364;DHT22;32071;49.036;9.344;2023-04-24T15:26:18;17.50;95.60
46364;DHT22;32071;49.036;9.344;2023-04-24T15:28:44;19.60;92.20
46364;DHT22;32071;49.036;9.344;2023-04-24T15:31:14;20.30;90.50
46364;DHT22;32071;49.036;9.344;2023-04-24T15:33:40;19.20;91.50
46364;DHT22;32071;49.036;9.344;2023-04-24T15:36:05;18.00;92.40